createdAt,value
2022-11-27T00:01:18.944Z,37.00
2022-11-27T00:03:46.500Z,40.80
2022-11-27T00:06:14.212Z,42.80
2022-11-27T00:08:40.645Z,51.00
2022-11-27T00:13:48.078Z,52.00
2022-11-27T00:16:15.249Z,49.75
2022-11-27T00:18:41.981Z,48.75
2022-11-27T00:21:10.659Z,47.00
2022-11-27T00:23:37.103Z,35.20
2022-11-27T00:26:04.295Z,32.50
2022-11-27T00:28:30.711Z,31.00
2022-11-27T00:31:04.553Z,31.00
2022-11-27T00:33:31.167Z,35.50
2022-11-27T00:36:01.585Z,31.20
2022-11-27T00:38:27.997Z,35.50
2022-11-27T00:40:54.433Z,36.00
2022-11-27T00:43:20.869Z,35.20
2022-11-27T00:45:50.485Z,36.00
2022-11-27T00:48:16.932Z,34.25
2022-11-27T00:50:43.381Z,30.20
2022-11-27T00:53:09.775Z,40.50
2022-11-27T00:55:36.172Z,39.60
2022-11-27T00:58:02.591Z,40.50
2022-11-27T01:00:29.006Z,39.50
2022-11-27T01:02:55.517Z,36.50
2022-11-27T01:05:22.050Z,34.00
2022-11-27T01:07:48.503Z,37.50
2022-11-27T01:10:15.022Z,35.00
2022-11-27T01:12:41.452Z,40.00
2022-11-27T01:15:08.314Z,52.50
2022-11-27T01:17:34.765Z,53.80
2022-11-27T01:20:01.227Z,49.50
2022-11-27T01:22:27.670Z,53.75
2022-11-27T01:24:54.097Z,50.80
2022-11-27T01:27:20.550Z,47.50
2022-11-27T01:29:46.985Z,44.25
2022-11-27T01:32:13.449Z,49.00
2022-11-27T01:34:40.285Z,51.00
2022-11-27T01:37:06.740Z,52.00
2022-11-27T01:39:33.143Z,47.80
2022-11-27T01:41:59.560Z,48.00
2022-11-27T01:44:26.038Z,45.50
2022-11-27T01:46:55.487Z,34.60
2022-11-27T01:49:28.867Z,43.50
2022-11-27T01:52:07.334Z,43.50
2022-11-27T01:54:36.844Z,41.20
2022-11-27T01:57:06.569Z,38.75
2022-11-27T01:59:33.135Z,40.40
2022-11-27T02:02:00.617Z,44.20
2022-11-27T02:04:27.062Z,44.20
2022-11-27T02:06:55.374Z,45.50
2022-11-27T02:09:21.909Z,40.00
2022-11-27T02:11:56.063Z,46.00
2022-11-27T02:14:35.428Z,43.80
2022-11-27T02:17:18.154Z,45.20
2022-11-27T02:20:03.015Z,46.00
2022-11-27T02:22:29.399Z,46.60
2022-11-27T02:25:11.096Z,43.20
2022-11-27T02:27:56.588Z,43.60
2022-11-27T02:30:23.239Z,38.50
2022-11-27T02:32:54.410Z,43.75
2022-11-27T02:35:26.371Z,32.75
2022-11-27T02:38:31.492Z,36.00
2022-11-27T02:41:05.472Z,29.60
2022-11-27T02:43:39.097Z,33.00
2022-11-27T02:46:07.367Z,26.75
2022-11-27T02:48:36.141Z,28.80
2022-11-27T02:51:05.588Z,26.00
2022-11-27T02:53:40.608Z,21.00
2022-11-27T02:56:09.119Z,27.20
2022-11-27T02:58:36.405Z,20.40
2022-11-27T03:01:04.028Z,20.00
2022-11-27T03:03:34.264Z,17.25
2022-11-27T03:06:03.223Z,18.75
2022-11-27T03:08:40.264Z,19.25
2022-11-27T03:11:14.042Z,17.00
2022-11-27T03:13:45.576Z,20.00
2022-11-27T03:16:21.211Z,17.60
2022-11-27T03:19:02.736Z,17.25
2022-11-27T03:21:49.376Z,15.00
2022-11-27T03:24:16.366Z,17.75
2022-11-27T03:26:43.872Z,19.00
2022-11-27T03:29:16.089Z,14.00
2022-11-27T03:31:42.529Z,16.00
2022-11-27T03:34:09.018Z,16.00
2022-11-27T03:36:35.527Z,14.00
2022-11-27T03:39:02.145Z,16.25
2022-11-27T03:41:38.960Z,16.00
2022-11-27T03:44:05.351Z,14.60
2022-11-27T03:46:45.932Z,16.00
2022-11-27T03:49:28.653Z,20.00
2022-11-27T03:52:12.962Z,17.00
2022-11-27T03:54:39.514Z,14.60
2022-11-27T03:57:13.572Z,13.00
2022-11-27T03:59:42.442Z,17.00
2022-11-27T04:02:13.853Z,17.75
2022-11-27T04:04:40.812Z,22.00
2022-11-27T04:07:07.485Z,21.40
2022-11-27T04:09:33.914Z,20.50
2022-11-27T04:12:00.342Z,16.20
2022-11-27T04:14:26.732Z,19.80
2022-11-27T04:16:53.181Z,23.60
2022-11-27T04:19:19.614Z,25.00
2022-11-27T04:21:46.019Z,23.80
2022-11-27T04:24:12.586Z,19.50
2022-11-27T04:26:39.124Z,21.50
2022-11-27T04:29:05.796Z,22.00
2022-11-27T04:31:32.260Z,26.00
2022-11-27T04:33:58.727Z,22.80
2022-11-27T04:36:25.122Z,27.60
2022-11-27T04:38:51.526Z,23.00
2022-11-27T04:41:18.048Z,25.25
2022-11-27T04:43:44.484Z,22.00
2022-11-27T04:46:11.046Z,25.00
2022-11-27T04:48:37.527Z,37.25
2022-11-27T04:51:04.007Z,29.00
2022-11-27T04:53:30.400Z,25.40
2022-11-27T04:55:56.827Z,32.00
2022-11-27T04:58:23.255Z,29.00
2022-11-27T05:00:49.715Z,27.00
2022-11-27T05:03:16.269Z,35.00
2022-11-27T05:05:42.804Z,32.80
2022-11-27T05:08:09.220Z,28.60
2022-11-27T05:10:35.651Z,29.75
2022-11-27T05:13:02.048Z,36.00
2022-11-27T05:15:28.441Z,36.25
2022-11-27T05:17:54.875Z,28.60
2022-11-27T05:20:21.275Z,33.50
2022-11-27T05:22:49.668Z,21.60
2022-11-27T05:25:16.155Z,23.00
2022-11-27T05:27:44.914Z,26.75
2022-11-27T05:30:11.580Z,27.00
2022-11-27T05:32:38.137Z,22.80
2022-11-27T05:35:04.687Z,26.80
2022-11-27T05:37:31.119Z,29.00
2022-11-27T05:39:57.545Z,23.20
2022-11-27T05:42:23.965Z,26.00
2022-11-27T05:44:55.309Z,26.00
2022-11-27T05:47:24.486Z,23.00
2022-11-27T05:49:50.928Z,30.00
2022-11-27T05:52:17.414Z,23.00
2022-11-27T05:54:44.240Z,21.00
2022-11-27T05:57:10.654Z,26.75
2022-11-27T05:59:37.149Z,21.40
2022-11-27T06:02:03.715Z,24.60
2022-11-27T06:04:32.726Z,23.00
2022-11-27T06:06:59.151Z,19.50
2022-11-27T06:09:25.618Z,19.25
2022-11-27T06:11:52.037Z,20.75
2022-11-27T06:14:18.464Z,24.00
2022-11-27T06:16:44.971Z,21.60
2022-11-27T06:19:11.427Z,20.20
2022-11-27T06:21:37.868Z,27.40
2022-11-27T06:24:04.384Z,26.00
2022-11-27T06:26:31.774Z,24.40
2022-11-27T06:28:58.960Z,19.00
2022-11-27T06:31:26.764Z,20.80
2022-11-27T06:33:53.930Z,22.50
2022-11-27T06:36:20.805Z,21.00
2022-11-27T06:38:47.403Z,24.50
2022-11-27T06:41:15.613Z,23.40
2022-11-27T06:43:42.382Z,24.80
2022-11-27T06:46:11.733Z,20.00
2022-11-27T06:48:38.319Z,18.80
2022-11-27T06:51:06.003Z,24.20
2022-11-27T06:53:34.251Z,18.00
2022-11-27T06:56:02.948Z,18.50
2022-11-27T06:58:31.272Z,20.00
2022-11-27T07:01:02.739Z,17.25
2022-11-27T07:03:29.261Z,16.40
2022-11-27T07:05:55.714Z,10.25
2022-11-27T07:08:22.514Z,13.80
2022-11-27T07:10:48.927Z,16.00
2022-11-27T07:13:15.389Z,19.00
2022-11-27T07:15:42.133Z,11.60
2022-11-27T07:18:08.543Z,12.50
2022-11-27T07:20:35.008Z,14.00
2022-11-27T07:23:01.569Z,11.67
2022-11-27T07:25:27.992Z,15.00
2022-11-27T07:27:55.618Z,12.25
2022-11-27T07:30:22.090Z,12.60
2022-11-27T07:32:48.492Z,24.20
2022-11-27T07:35:14.944Z,14.50
2022-11-27T07:37:41.400Z,11.00
2022-11-27T07:40:08.040Z,16.60
2022-11-27T07:42:38.797Z,13.20
2022-11-27T07:45:06.514Z,12.40
2022-11-27T07:47:32.936Z,9.00
2022-11-27T07:50:00.569Z,10.80
2022-11-27T07:52:27.461Z,13.60
2022-11-27T07:54:54.244Z,11.50
2022-11-27T07:57:20.671Z,10.00
2022-11-27T07:59:47.611Z,11.50
2022-11-27T08:02:14.875Z,18.50
2022-11-27T08:04:41.928Z,18.00
2022-11-27T08:07:08.629Z,12.40
2022-11-27T08:09:35.145Z,15.80
2022-11-27T08:12:01.572Z,11.00
2022-11-27T08:14:28.029Z,15.00
2022-11-27T08:16:54.671Z,19.00
2022-11-27T08:19:21.197Z,32.40
2022-11-27T08:21:47.752Z,16.00
2022-11-27T08:24:14.219Z,19.00
2022-11-27T08:26:40.775Z,20.75
2022-11-27T08:29:07.503Z,17.80
2022-11-27T08:31:34.184Z,15.00
2022-11-27T08:34:00.658Z,17.50
2022-11-27T08:36:27.310Z,17.60
2022-11-27T08:38:54.421Z,16.00
2022-11-27T08:41:21.177Z,14.00
2022-11-27T08:43:47.609Z,10.60
2022-11-27T08:46:14.100Z,13.00
2022-11-27T08:48:41.831Z,14.00
2022-11-27T08:51:09.939Z,19.50
2022-11-27T08:53:37.753Z,18.25
2022-11-27T08:56:30.892Z,14.50
2022-11-27T08:58:57.493Z,12.20
2022-11-27T09:01:25.369Z,14.75
2022-11-27T09:03:52.897Z,12.25
2022-11-27T09:06:21.491Z,15.00
2022-11-27T09:08:48.452Z,14.20
2022-11-27T09:11:15.885Z,12.00
2022-11-27T09:13:42.727Z,13.75
2022-11-27T09:16:13.119Z,12.00
2022-11-27T09:18:40.002Z,10.00
2022-11-27T09:21:08.225Z,11.40
2022-11-27T09:23:35.214Z,12.80
2022-11-27T09:26:02.990Z,11.80
2022-11-27T09:28:31.671Z,12.50
2022-11-27T09:30:59.623Z,10.60
2022-11-27T09:33:26.904Z,11.20
2022-11-27T09:35:53.422Z,9.60
2022-11-27T09:38:20.032Z,10.25
2022-11-27T09:40:48.408Z,8.40
2022-11-27T09:43:15.271Z,8.00
2022-11-27T09:45:50.348Z,7.80
2022-11-27T09:48:22.352Z,10.00
2022-11-27T09:50:53.227Z,10.00
2022-11-27T09:53:31.761Z,7.00
2022-11-27T09:55:59.508Z,7.60
2022-11-27T09:58:31.778Z,8.25
2022-11-27T10:00:58.548Z,10.80
2022-11-27T10:03:26.254Z,8.25
2022-11-27T10:05:52.733Z,14.00
2022-11-27T10:08:38.003Z,9.00
2022-11-27T10:11:21.571Z,7.75
2022-11-27T10:13:53.807Z,7.75
2022-11-27T10:16:26.266Z,7.00
2022-11-27T10:18:59.431Z,7.00
2022-11-27T10:21:28.969Z,12.25
2022-11-27T10:23:55.387Z,12.40
2022-11-27T10:26:28.161Z,12.25
2022-11-27T10:29:06.899Z,7.75
2022-11-27T10:31:33.439Z,10.50
2022-11-27T10:34:05.418Z,8.40
2022-11-27T10:36:43.258Z,9.00
2022-11-27T10:39:15.014Z,10.75
2022-11-27T10:41:49.936Z,9.00
2022-11-27T10:44:28.725Z,8.75
2022-11-27T10:46:58.623Z,12.25
2022-11-27T10:49:25.066Z,10.00
2022-11-27T10:51:51.486Z,10.25
2022-11-27T10:54:23.243Z,9.40
2022-11-27T10:56:52.437Z,13.25
2022-11-27T10:59:22.237Z,8.00
2022-11-27T11:01:50.776Z,11.25
2022-11-27T11:04:38.316Z,7.50
2022-11-27T11:07:16.652Z,10.20
2022-11-27T11:09:46.332Z,12.00
2022-11-27T11:12:18.584Z,15.00
2022-11-27T11:14:55.074Z,9.00
2022-11-27T11:17:28.639Z,12.25
2022-11-27T11:19:55.118Z,26.25
2022-11-27T11:22:21.816Z,17.50
2022-11-27T11:24:50.011Z,15.00
2022-11-27T11:27:21.475Z,12.00
2022-11-27T11:30:04.937Z,13.50
2022-11-27T11:32:39.159Z,17.25
2022-11-27T11:35:24.665Z,6.40
2022-11-27T11:37:51.653Z,12.80
2022-11-27T11:40:21.057Z,12.20
2022-11-27T11:43:01.247Z,10.00
2022-11-27T11:45:31.337Z,10.00
2022-11-27T11:48:00.824Z,9.80
2022-11-27T11:50:27.245Z,9.00
2022-11-27T11:52:59.325Z,10.75
2022-11-27T11:55:36.469Z,10.00
2022-11-27T11:58:10.483Z,12.80
2022-11-27T12:01:04.400Z,8.50
2022-11-27T12:03:38.326Z,13.00
2022-11-27T12:06:14.074Z,11.25
2022-11-27T12:08:59.019Z,6.60
2022-11-27T12:11:31.669Z,10.00
2022-11-27T12:13:58.057Z,7.50
2022-11-27T12:16:27.636Z,9.00
2022-11-27T12:18:57.985Z,6.80
2022-11-27T12:21:44.665Z,7.00
2022-11-27T12:24:13.946Z,8.00
2022-11-27T12:26:40.312Z,5.00
2022-11-27T12:29:06.672Z,4.00
2022-11-27T12:31:36.164Z,9.00
2022-11-27T12:34:06.169Z,7.00
2022-11-27T12:36:38.413Z,5.25
2022-11-27T12:39:23.664Z,4.50
2022-11-27T12:42:01.761Z,4.00
2022-11-27T12:44:57.953Z,5.50
2022-11-27T12:47:38.792Z,6.25
2022-11-27T12:50:32.902Z,5.80
2022-11-27T12:53:03.418Z,5.00
2022-11-27T12:55:31.453Z,7.00
2022-11-27T12:58:00.479Z,8.60
2022-11-27T13:00:29.543Z,5.00
2022-11-27T13:03:04.935Z,9.60
2022-11-27T13:05:53.770Z,5.40
2022-11-27T13:08:25.970Z,6.00
2022-11-27T13:10:56.864Z,3.60
2022-11-27T13:13:27.978Z,6.00
2022-11-27T13:15:54.416Z,5.00
2022-11-27T13:18:20.800Z,4.00
2022-11-27T13:20:52.348Z,4.75
2022-11-27T13:23:20.111Z,7.00
2022-11-27T13:25:50.084Z,6.00
2022-11-27T13:28:25.410Z,8.60
2022-11-27T13:30:53.340Z,9.40
2022-11-27T13:33:39.561Z,5.25
2022-11-27T13:36:08.934Z,4.80
2022-11-27T13:38:41.248Z,4.50
2022-11-27T13:41:08.435Z,6.00
2022-11-27T13:43:42.732Z,6.80
2022-11-27T13:46:12.253Z,5.75
2022-11-27T13:48:42.203Z,7.00
2022-11-27T13:51:09.738Z,33.80
2022-11-27T13:53:37.699Z,8.00
2022-11-27T13:56:04.848Z,11.40
2022-11-27T13:58:35.959Z,8.00
2022-11-27T14:01:13.064Z,5.20
2022-11-27T14:03:39.640Z,4.80
2022-11-27T14:06:15.962Z,7.40
2022-11-27T14:08:49.056Z,12.00
2022-11-27T14:11:15.511Z,11.60
2022-11-27T14:13:44.088Z,8.40
2022-11-27T14:16:22.657Z,14.80
2022-11-27T14:18:50.806Z,11.00
2022-11-27T14:21:25.092Z,16.00
2022-11-27T14:23:52.473Z,12.75
2022-11-27T14:26:18.866Z,14.00
2022-11-27T14:28:48.481Z,11.00
2022-11-27T14:31:41.425Z,12.40
2022-11-27T14:34:24.891Z,26.00
2022-11-27T14:36:51.964Z,8.40
2022-11-27T14:39:37.388Z,11.40
2022-11-27T14:42:08.172Z,11.40
2022-11-27T14:44:35.049Z,8.00
2022-11-27T14:47:03.428Z,6.80
2022-11-27T14:49:30.636Z,8.00
2022-11-27T14:52:01.166Z,11.00
2022-11-27T14:54:29.817Z,11.00
2022-11-27T14:56:56.561Z,6.00
2022-11-27T14:59:23.980Z,9.00
2022-11-27T15:02:09.280Z,6.80
2022-11-27T15:04:37.235Z,5.00
2022-11-27T15:07:14.030Z,11.00
2022-11-27T15:09:44.528Z,6.75
2022-11-27T15:12:16.844Z,6.80
2022-11-27T15:15:03.458Z,7.00
2022-11-27T15:17:32.131Z,6.00
2022-11-27T15:19:59.252Z,5.40
2022-11-27T15:22:25.705Z,7.50
2022-11-27T15:25:05.966Z,4.40
2022-11-27T15:27:33.479Z,6.00
2022-11-27T15:30:01.296Z,5.00
2022-11-27T15:32:34.256Z,4.00
2022-11-27T15:35:00.679Z,10.20
2022-11-27T15:37:27.335Z,5.20
2022-11-27T15:39:55.249Z,7.00
2022-11-27T15:42:22.448Z,6.25
2022-11-27T15:44:49.897Z,3.80
2022-11-27T15:47:24.462Z,4.50
2022-11-27T15:49:51.093Z,5.50
2022-11-27T15:52:17.599Z,6.00
2022-11-27T15:54:44.283Z,7.00
2022-11-27T15:57:10.911Z,5.60
2022-11-27T15:59:37.355Z,5.00
2022-11-27T16:02:04.061Z,9.40
2022-11-27T16:04:30.835Z,7.00
2022-11-27T16:06:57.273Z,15.00
2022-11-27T16:09:24.132Z,17.60
2022-11-27T16:11:50.916Z,9.25
2022-11-27T16:14:17.355Z,12.75
2022-11-27T16:16:43.863Z,13.00
2022-11-27T16:19:12.268Z,4.40
2022-11-27T16:21:39.088Z,5.60
2022-11-27T16:24:06.731Z,6.75
2022-11-27T16:26:33.634Z,12.00
2022-11-27T16:29:00.180Z,11.50
2022-11-27T16:31:26.761Z,16.60
2022-11-27T16:33:53.447Z,17.00
2022-11-27T16:36:20.838Z,10.60
2022-11-27T16:38:47.270Z,13.50
2022-11-27T16:41:17.632Z,22.00
2022-11-27T16:43:45.773Z,30.75
2022-11-27T16:46:13.274Z,32.75
2022-11-27T16:48:41.191Z,36.80
2022-11-27T16:51:15.702Z,23.00
2022-11-27T16:53:43.988Z,19.75
2022-11-27T16:56:11.715Z,20.80
2022-11-27T16:58:39.231Z,21.00
2022-11-27T17:01:06.685Z,22.80
2022-11-27T17:03:33.819Z,26.00
2022-11-27T17:06:00.413Z,27.50
2022-11-27T17:08:27.057Z,25.75
2022-11-27T17:10:53.474Z,27.40
2022-11-27T17:13:19.920Z,22.00
2022-11-27T17:15:46.362Z,22.00
2022-11-27T17:18:12.971Z,32.00
2022-11-27T17:20:39.501Z,30.40
2022-11-27T17:23:06.171Z,19.00
2022-11-27T17:25:32.809Z,19.20
2022-11-27T17:27:59.294Z,19.50
2022-11-27T17:30:25.798Z,18.50
2022-11-27T17:32:52.338Z,24.50
2022-11-27T17:35:18.866Z,17.40
2022-11-27T17:37:45.488Z,11.50
2022-11-27T17:40:12.358Z,15.00
2022-11-27T17:42:38.866Z,12.40
2022-11-27T17:45:05.629Z,14.40
2022-11-27T17:47:34.066Z,20.75
2022-11-27T17:50:00.669Z,16.00
2022-11-27T17:52:27.321Z,14.67
2022-11-27T17:54:53.851Z,15.80
2022-11-27T17:57:20.328Z,16.00
2022-11-27T17:59:46.754Z,14.00
2022-11-27T18:02:13.255Z,13.00
2022-11-27T18:04:39.701Z,23.33
2022-11-27T18:07:06.100Z,16.00
2022-11-27T18:09:32.558Z,14.40
2022-11-27T18:11:59.011Z,16.00
2022-11-27T18:14:25.612Z,15.00
2022-11-27T18:16:52.112Z,14.60
2022-11-27T18:19:18.626Z,12.75
2022-11-27T18:21:45.183Z,13.00
2022-11-27T18:24:26.885Z,16.33
2022-11-27T18:27:09.866Z,28.00
2022-11-27T18:29:37.321Z,18.00
2022-11-27T18:32:03.987Z,13.00
2022-11-27T18:34:30.552Z,15.25
2022-11-27T18:36:59.667Z,10.25
2022-11-27T18:39:26.350Z,12.80
2022-11-27T18:41:52.752Z,14.60
2022-11-27T18:44:19.289Z,12.60
2022-11-27T18:46:45.718Z,10.00
2022-11-27T18:49:12.460Z,12.80
2022-11-27T18:51:38.874Z,13.60
2022-11-27T18:54:05.397Z,14.60
2022-11-27T18:56:32.178Z,11.60
2022-11-27T18:59:03.157Z,14.00
2022-11-27T19:01:31.306Z,11.00
2022-11-27T19:04:00.303Z,13.50
2022-11-27T19:06:29.921Z,14.75
2022-11-27T19:08:59.184Z,16.00
2022-11-27T19:11:26.165Z,16.60
2022-11-27T19:13:54.372Z,20.00
2022-11-27T19:16:22.362Z,17.40
2022-11-27T19:18:48.805Z,21.00
2022-11-27T19:21:16.757Z,26.25
2022-11-27T19:23:43.537Z,20.60
2022-11-27T19:26:11.438Z,45.50
2022-11-27T19:28:38.218Z,32.75
2022-11-27T19:31:05.768Z,21.80
2022-11-27T19:33:32.332Z,31.80
2022-11-27T19:35:59.534Z,60.80
2022-11-27T19:38:25.996Z,32.33
2022-11-27T19:40:52.398Z,33.00
2022-11-27T19:43:19.209Z,49.60
2022-11-27T19:45:45.959Z,47.20
2022-11-27T19:48:12.407Z,44.50
2022-11-27T19:50:39.105Z,36.50
2022-11-27T19:53:07.193Z,36.40
2022-11-27T19:55:34.348Z,30.80
2022-11-27T19:58:01.345Z,32.40
2022-11-27T20:00:27.973Z,21.00
2022-11-27T20:02:54.374Z,31.60
2022-11-27T20:05:20.864Z,67.00
2022-11-27T20:07:48.554Z,107.40
2022-11-27T20:10:15.602Z,56.80
2022-11-27T20:12:42.168Z,51.25
2022-11-27T20:15:13.657Z,23.40
2022-11-27T20:17:44.352Z,38.00
2022-11-27T20:20:12.072Z,31.00
2022-11-27T20:22:38.531Z,90.40
2022-11-27T20:25:19.147Z,56.75
2022-11-27T20:27:46.601Z,44.60
2022-11-27T20:30:13.083Z,59.50
2022-11-27T20:32:39.479Z,51.00
2022-11-27T20:35:06.029Z,45.00
2022-11-27T20:37:33.970Z,26.00
2022-11-27T20:40:00.557Z,27.00
2022-11-27T20:42:26.961Z,34.75
2022-11-27T20:44:53.367Z,20.20
2022-11-27T20:47:19.853Z,24.60
2022-11-27T20:49:46.279Z,19.50
2022-11-27T20:52:14.513Z,27.75
2022-11-27T20:54:41.088Z,24.00
2022-11-27T20:57:11.007Z,23.50
2022-11-27T20:59:37.517Z,21.40
2022-11-27T21:02:05.417Z,21.00
2022-11-27T21:04:31.867Z,24.00
2022-11-27T21:06:58.644Z,17.25
2022-11-27T21:09:25.094Z,21.60
2022-11-27T21:11:51.499Z,19.60
2022-11-27T21:14:18.556Z,20.40
2022-11-27T21:16:48.418Z,21.40
2022-11-27T21:19:20.073Z,18.00
2022-11-27T21:21:46.526Z,20.60
2022-11-27T21:24:13.049Z,18.00
2022-11-27T21:26:40.228Z,19.40
2022-11-27T21:29:06.809Z,18.00
2022-11-27T21:31:37.519Z,22.80
2022-11-27T21:34:05.733Z,25.20
2022-11-27T21:36:33.494Z,22.50
2022-11-27T21:39:00.579Z,22.75
2022-11-27T21:41:28.205Z,28.60
2022-11-27T21:43:56.452Z,23.60
2022-11-27T21:46:23.298Z,19.80
2022-11-27T21:48:50.987Z,29.40
2022-11-27T21:51:19.053Z,23.00
2022-11-27T21:53:46.630Z,21.00
2022-11-27T21:56:14.503Z,19.25
2022-11-27T21:58:41.256Z,22.80
2022-11-27T22:01:11.228Z,21.00
2022-11-27T22:03:42.324Z,21.00
2022-11-27T22:06:18.883Z,17.40
2022-11-27T22:08:46.381Z,19.50
2022-11-27T22:11:14.785Z,16.60
2022-11-27T22:13:41.635Z,21.00
2022-11-27T22:16:09.009Z,17.50
2022-11-27T22:18:35.492Z,19.75
2022-11-27T22:21:05.556Z,15.00
2022-11-27T22:23:32.105Z,20.40
2022-11-27T22:26:01.913Z,15.00
2022-11-27T22:28:28.866Z,16.75
2022-11-27T22:30:55.965Z,14.50
2022-11-27T22:33:22.449Z,17.00
2022-11-27T22:35:48.840Z,15.50
2022-11-27T22:38:15.355Z,13.50
2022-11-27T22:40:43.786Z,16.50
2022-11-27T22:43:10.577Z,19.00
2022-11-27T22:45:41.606Z,17.20
2022-11-27T22:48:08.187Z,18.00
2022-11-27T22:50:34.583Z,25.50
2022-11-27T22:53:01.018Z,19.25
2022-11-27T22:55:28.178Z,23.00
2022-11-27T22:57:54.660Z,16.40
2022-11-27T23:00:21.569Z,16.60
2022-11-27T23:02:48.218Z,13.80
2022-11-27T23:05:14.698Z,13.80
2022-11-27T23:07:41.169Z,11.00
2022-11-27T23:10:09.407Z,14.25
2022-11-27T23:12:35.828Z,17.25
2022-11-27T23:15:02.272Z,17.00
2022-11-27T23:17:28.994Z,9.00
2022-11-27T23:19:55.393Z,13.20
2022-11-27T23:22:21.982Z,13.00
2022-11-27T23:24:48.400Z,12.00
2022-11-27T23:27:14.803Z,13.00
2022-11-27T23:29:41.244Z,10.60
2022-11-27T23:32:07.721Z,12.00
2022-11-27T23:34:34.166Z,8.20
2022-11-27T23:37:00.559Z,14.00
2022-11-27T23:39:27.002Z,8.75
2022-11-27T23:41:53.406Z,13.80
2022-11-27T23:44:20.925Z,10.80
2022-11-27T23:46:48.121Z,8.60
2022-11-27T23:49:14.590Z,11.25
2022-11-27T23:51:41.016Z,10.00
2022-11-27T23:54:09.371Z,8.25
2022-11-27T23:56:36.530Z,15.00
2022-11-27T23:59:03.452Z,11.00
